sensor_id;sensor_type;location;lat;lon;timestamp;temperature;humidity
9723;DHT22;4900;49.306;8.500;2022-08-19T00:00:11;23.43;62.26
9723;DHT22;4900;49.306;8.500;2022-08-19T00:03:18;23.47;62.30
9723;DHT22;4900;49.306;8.500;2022-08-19T00:06:22;23.44;62.39
9723;DHT22;4900;49.306;8.500;2022-08-19T00:09:25;23.48;62.40
9723;DHT22;4900;49.306;8.500;2022-08-19T00:12:29;23.43;62.42
9723;DHT22;4900;49.306;8.500;2022-08-19T00:15:32;23.37;62.56
9723;DHT22;4900;49.306;8.500;2022-08-19T00:18:35;23.47;62.50
9723;DHT22;4900;49.306;8.500;2022-08-19T00:21:39;23.43;62.53
9723;DHT22;4900;49.306;8.500;2022-08-19T00:24:42;23.43;62.49
9723;DHT22;4900;49.306;8.500;2022-08-19T00:27:46;23.40;62.62
9723;DHT22;4900;49.306;8.500;2022-08-19T00:30:50;23.40;62.49
9723;DHT22;4900;49.306;8.500;2022-08-19T00:33:54;23.40;62.47
9723;DHT22;4900;49.306;8.500;2022-08-19T00:36:57;23.40;62.53
9723;DHT22;4900;49.306;8.500;2022-08-19T00:40:04;23.30;62.67
9723;DHT22;4900;49.306;8.500;2022-08-19T00:43:11;23.30;62.77
9723;DHT22;4900;49.306;8.500;2022-08-19T00:46:15;23.28;62.79
9723;DHT22;4900;49.306;8.500;2022-08-19T00:49:24;23.27;62.86
9723;DHT22;4900;49.306;8.500;2022-08-19T00:52:33;23.19;63.00
9723;DHT22;4900;49.306;8.500;2022-08-19T00:55:38;23.19;63.07
9723;DHT22;4900;49.306;8.500;2022-08-19T00:58:42;23.24;62.92
9723;DHT22;4900;49.306;8.500;2022-08-19T01:01:46;23.26;62.78
9723;DHT22;4900;49.306;8.500;2022-08-19T01:04:50;23.24;62.88
9723;DHT22;4900;49.306;8.500;2022-08-19T01:07:54;23.26;62.89
9723;DHT22;4900;49.306;8.500;2022-08-19T01:10:59;23.26;62.78
9723;DHT22;4900;49.306;8.500;2022-08-19T01:14:03;23.26;62.81
9723;DHT22;4900;49.306;8.500;2022-08-19T01:17:11;23.24;62.91
9723;DHT22;4900;49.306;8.500;2022-08-19T01:20:18;23.19;62.93
9723;DHT22;4900;49.306;8.500;2022-08-19T01:23:22;23.19;63.12
9723;DHT22;4900;49.306;8.500;2022-08-19T01:26:45;23.19;62.98
9723;DHT22;4900;49.306;8.500;2022-08-19T01:29:48;23.10;63.18
9723;DHT22;4900;49.306;8.500;2022-08-19T01:32:53;23.16;63.12
9723;DHT22;4900;49.306;8.500;2022-08-19T01:36:09;23.10;63.21
9723;DHT22;4900;49.306;8.500;2022-08-19T01:39:15;23.04;63.30
9723;DHT22;4900;49.306;8.500;2022-08-19T01:42:19;23.10;63.37
9723;DHT22;4900;49.306;8.500;2022-08-19T01:45:25;23.09;63.42
9723;DHT22;4900;49.306;8.500;2022-08-19T01:48:37;23.02;63.63
9723;DHT22;4900;49.306;8.500;2022-08-19T01:51:41;23.04;63.63
9723;DHT22;4900;49.306;8.500;2022-08-19T01:54:44;23.07;63.54
9723;DHT22;4900;49.306;8.500;2022-08-19T01:57:51;23.07;63.48
9723;DHT22;4900;49.306;8.500;2022-08-19T02:00:56;23.03;63.46
9723;DHT22;4900;49.306;8.500;2022-08-19T02:03:59;23.10;63.40
9723;DHT22;4900;49.306;8.500;2022-08-19T02:07:03;23.13;63.28
9723;DHT22;4900;49.306;8.500;2022-08-19T02:10:10;23.13;63.25
9723;DHT22;4900;49.306;8.500;2022-08-19T02:13:14;23.12;63.28
9723;DHT22;4900;49.306;8.500;2022-08-19T02:16:18;23.10;63.31
9723;DHT22;4900;49.306;8.500;2022-08-19T02:19:21;23.07;63.39
9723;DHT22;4900;49.306;8.500;2022-08-19T02:22:25;23.07;63.48
9723;DHT22;4900;49.306;8.500;2022-08-19T02:25:28;23.07;63.57
9723;DHT22;4900;49.306;8.500;2022-08-19T02:28:31;23.09;63.64
9723;DHT22;4900;49.306;8.500;2022-08-19T02:31:35;23.04;63.63
9723;DHT22;4900;49.306;8.500;2022-08-19T02:34:39;23.07;63.60
9723;DHT22;4900;49.306;8.500;2022-08-19T02:37:43;23.09;63.53
9723;DHT22;4900;49.306;8.500;2022-08-19T02:41:09;23.07;63.60
9723;DHT22;4900;49.306;8.500;2022-08-19T02:44:13;23.09;63.74
9723;DHT22;4900;49.306;8.500;2022-08-19T02:47:18;23.03;63.76
9723;DHT22;4900;49.306;8.500;2022-08-19T02:50:22;23.06;63.62
9723;DHT22;4900;49.306;8.500;2022-08-19T02:53:27;23.06;63.58
9723;DHT22;4900;49.306;8.500;2022-08-19T02:56:31;23.09;63.49
9723;DHT22;4900;49.306;8.500;2022-08-19T02:59:34;23.06;63.72
9723;DHT22;4900;49.306;8.500;2022-08-19T03:02:38;23.03;63.72
9723;DHT22;4900;49.306;8.500;2022-08-19T03:05:42;22.96;63.75
9723;DHT22;4900;49.306;8.500;2022-08-19T03:08:47;22.89;64.03
9723;DHT22;4900;49.306;8.500;2022-08-19T03:11:51;22.92;64.14
9723;DHT22;4900;49.306;8.500;2022-08-19T03:14:55;22.85;64.36
9723;DHT22;4900;49.306;8.500;2022-08-19T03:17:58;22.85;64.46
9723;DHT22;4900;49.306;8.500;2022-08-19T03:21:01;22.67;64.97
9723;DHT22;4900;49.306;8.500;2022-08-19T03:24:07;22.71;64.89
9723;DHT22;4900;49.306;8.500;2022-08-19T03:27:11;22.61;65.11
9723;DHT22;4900;49.306;8.500;2022-08-19T03:30:14;22.65;65.07
9723;DHT22;4900;49.306;8.500;2022-08-19T03:33:18;22.62;65.07
9723;DHT22;4900;49.306;8.500;2022-08-19T03:36:23;22.61;65.04
9723;DHT22;4900;49.306;8.500;2022-08-19T03:39:28;22.61;65.04
9723;DHT22;4900;49.306;8.500;2022-08-19T03:42:30;22.54;65.10
9723;DHT22;4900;49.306;8.500;2022-08-19T03:45:34;22.54;65.06
9723;DHT22;4900;49.306;8.500;2022-08-19T03:48:38;22.55;65.13
9723;DHT22;4900;49.306;8.500;2022-08-19T03:51:42;22.51;65.24
9723;DHT22;4900;49.306;8.500;2022-08-19T03:54:45;22.50;65.25
9723;DHT22;4900;49.306;8.500;2022-08-19T03:57:49;22.43;65.53
9723;DHT22;4900;49.306;8.500;2022-08-19T04:00:52;22.41;65.85
9723;DHT22;4900;49.306;8.500;2022-08-19T04:03:57;22.41;65.91
9723;DHT22;4900;49.306;8.500;2022-08-19T04:07:00;22.41;65.94
9723;DHT22;4900;49.306;8.500;2022-08-19T04:10:04;22.34;66.03
9723;DHT22;4900;49.306;8.500;2022-08-19T04:13:07;22.43;65.93
9723;DHT22;4900;49.306;8.500;2022-08-19T04:16:11;22.38;65.82
9723;DHT22;4900;49.306;8.500;2022-08-19T04:19:16;22.43;65.85
9723;DHT22;4900;49.306;8.500;2022-08-19T04:22:19;22.43;65.94
9723;DHT22;4900;49.306;8.500;2022-08-19T04:25:22;22.40;65.90
9723;DHT22;4900;49.306;8.500;2022-08-19T04:28:26;22.41;65.85
9723;DHT22;4900;49.306;8.500;2022-08-19T04:31:31;22.31;66.24
9723;DHT22;4900;49.306;8.500;2022-08-19T04:34:38;22.33;66.15
9723;DHT22;4900;49.306;8.500;2022-08-19T04:37:41;22.36;66.10
9723;DHT22;4900;49.306;8.500;2022-08-19T04:40:50;22.36;66.11
9723;DHT22;4900;49.306;8.500;2022-08-19T04:44:13;22.28;66.25
9723;DHT22;4900;49.306;8.500;2022-08-19T04:47:16;22.33;66.16
9723;DHT22;4900;49.306;8.500;2022-08-19T04:50:20;22.34;66.05
9723;DHT22;4900;49.306;8.500;2022-08-19T04:53:30;22.38;65.94
9723;DHT22;4900;49.306;8.500;2022-08-19T04:56:34;22.38;65.83
9723;DHT22;4900;49.306;8.500;2022-08-19T04:59:38;22.44;65.75
9723;DHT22;4900;49.306;8.500;2022-08-19T05:02:43;22.50;65.67
9723;DHT22;4900;49.306;8.500;2022-08-19T05:05:47;22.51;65.52
9723;DHT22;4900;49.306;8.500;2022-08-19T05:08:53;22.64;65.17
9723;DHT22;4900;49.306;8.500;2022-08-19T05:11:57;22.76;64.89
9723;DHT22;4900;49.306;8.500;2022-08-19T05:15:03;22.83;64.72
9723;DHT22;4900;49.306;8.500;2022-08-19T05:18:07;22.96;64.36
9723;DHT22;4900;49.306;8.500;2022-08-19T05:21:29;23.07;64.02
9723;DHT22;4900;49.306;8.500;2022-08-19T05:24:51;23.26;63.52
9723;DHT22;4900;49.306;8.500;2022-08-19T05:27:55;23.37;63.26
9723;DHT22;4900;49.306;8.500;2022-08-19T05:30:58;23.48;62.99
9723;DHT22;4900;49.306;8.500;2022-08-19T05:34:02;23.59;62.76
9723;DHT22;4900;49.306;8.500;2022-08-19T05:37:07;23.72;62.45
9723;DHT22;4900;49.306;8.500;2022-08-19T05:40:11;23.71;62.41
9723;DHT22;4900;49.306;8.500;2022-08-19T05:43:14;23.82;62.05
9723;DHT22;4900;49.306;8.500;2022-08-19T05:46:20;23.85;61.97
9723;DHT22;4900;49.306;8.500;2022-08-19T05:49:26;23.85;61.80
9723;DHT22;4900;49.306;8.500;2022-08-19T05:52:30;23.92;61.66
9723;DHT22;4900;49.306;8.500;2022-08-19T05:55:34;23.89;61.61
9723;DHT22;4900;49.306;8.500;2022-08-19T05:58:38;24.06;61.34
9723;DHT22;4900;49.306;8.500;2022-08-19T06:01:43;24.20;61.05
9723;DHT22;4900;49.306;8.500;2022-08-19T06:04:47;24.28;60.87
9723;DHT22;4900;49.306;8.500;2022-08-19T06:07:51;24.34;60.70
9723;DHT22;4900;49.306;8.500;2022-08-19T06:10:54;24.41;60.62
9723;DHT22;4900;49.306;8.500;2022-08-19T06:14:02;24.43;60.46
9723;DHT22;4900;49.306;8.500;2022-08-19T06:17:05;24.52;60.30
9723;DHT22;4900;49.306;8.500;2022-08-19T06:20:11;24.58;60.11
9723;DHT22;4900;49.306;8.500;2022-08-19T06:23:16;24.65;59.98
9723;DHT22;4900;49.306;8.500;2022-08-19T06:26:20;24.67;59.85
9723;DHT22;4900;49.306;8.500;2022-08-19T06:29:25;24.76;59.48
9723;DHT22;4900;49.306;8.500;2022-08-19T06:32:29;24.85;59.25
9723;DHT22;4900;49.306;8.500;2022-08-19T06:35:38;24.85;59.10
9723;DHT22;4900;49.306;8.500;2022-08-19T06:38:41;24.99;58.84
9723;DHT22;4900;49.306;8.500;2022-08-19T06:41:47;25.03;58.70
9723;DHT22;4900;49.306;8.500;2022-08-19T06:44:50;25.09;58.51
9723;DHT22;4900;49.306;8.500;2022-08-19T06:47:54;25.16;58.45
9723;DHT22;4900;49.306;8.500;2022-08-19T06:50:58;25.26;58.24
9723;DHT22;4900;49.306;8.500;2022-08-19T06:54:02;25.41;57.88
9723;DHT22;4900;49.306;8.500;2022-08-19T06:57:06;25.45;57.74
9723;DHT22;4900;49.306;8.500;2022-08-19T07:00:10;25.48;57.77
9723;DHT22;4900;49.306;8.500;2022-08-19T07:03:16;25.78;57.40
9723;DHT22;4900;49.306;8.500;2022-08-19T07:06:20;26.00;56.97
9723;DHT22;4900;49.306;8.500;2022-08-19T07:09:23;26.13;56.75
9723;DHT22;4900;49.306;8.500;2022-08-19T07:12:31;26.36;56.12
9723;DHT22;4900;49.306;8.500;2022-08-19T07:15:37;26.61;55.59
9723;DHT22;4900;49.306;8.500;2022-08-19T07:18:41;26.73;54.96
9723;DHT22;4900;49.306;8.500;2022-08-19T07:21:47;27.02;54.72
9723;DHT22;4900;49.306;8.500;2022-08-19T07:24:51;27.14;54.28
9723;DHT22;4900;49.306;8.500;2022-08-19T07:27:55;27.37;53.81
9723;DHT22;4900;49.306;8.500;2022-08-19T07:30:59;27.53;53.50
9723;DHT22;4900;49.306;8.500;2022-08-19T07:34:07;27.62;53.10
9723;DHT22;4900;49.306;8.500;2022-08-19T07:37:10;27.68;52.85
9723;DHT22;4900;49.306;8.500;2022-08-19T07:40:13;27.92;52.29
9723;DHT22;4900;49.306;8.500;2022-08-19T07:43:17;27.89;52.35
9723;DHT22;4900;49.306;8.500;2022-08-19T07:46:25;27.61;52.49
9723;DHT22;4900;49.306;8.500;2022-08-19T07:49:30;27.79;52.33
9723;DHT22;4900;49.306;8.500;2022-08-19T07:52:33;27.78;52.40
9723;DHT22;4900;49.306;8.500;2022-08-19T07:55:37;27.62;52.36
9723;DHT22;4900;49.306;8.500;2022-08-19T07:58:43;27.86;52.19
9723;DHT22;4900;49.306;8.500;2022-08-19T08:01:46;27.89;52.21
9723;DHT22;4900;49.306;8.500;2022-08-19T08:04:50;28.02;51.86
9723;DHT22;4900;49.306;8.500;2022-08-19T08:08:13;28.26;51.09
9723;DHT22;4900;49.306;8.500;2022-08-19T08:11:35;28.36;51.04
9723;DHT22;4900;49.306;8.500;2022-08-19T08:14:40;28.30;51.25
9723;DHT22;4900;49.306;8.500;2022-08-19T08:17:44;28.31;51.27
9723;DHT22;4900;49.306;8.500;2022-08-19T08:20:48;28.44;51.12
9723;DHT22;4900;49.306;8.500;2022-08-19T08:23:51;28.86;50.42
9723;DHT22;4900;49.306;8.500;2022-08-19T08:26:58;28.88;50.05
9723;DHT22;4900;49.306;8.500;2022-08-19T08:30:02;29.22;49.41
9723;DHT22;4900;49.306;8.500;2022-08-19T08:33:06;29.51;49.05
9723;DHT22;4900;49.306;8.500;2022-08-19T08:36:09;30.07;47.83
9723;DHT22;4900;49.306;8.500;2022-08-19T08:39:19;30.64;46.39
9723;DHT22;4900;49.306;8.500;2022-08-19T08:42:31;30.65;46.00
9723;DHT22;4900;49.306;8.500;2022-08-19T08:45:47;30.74;45.54
9723;DHT22;4900;49.306;8.500;2022-08-19T08:52:31;31.65;43.45
9723;DHT22;4900;49.306;8.500;2022-08-19T08:55:40;31.75;42.94
9723;DHT22;4900;49.306;8.500;2022-08-19T08:58:59;31.61;42.67
9723;DHT22;4900;49.306;8.500;2022-08-19T09:02:03;31.67;42.92
9723;DHT22;4900;49.306;8.500;2022-08-19T09:05:06;31.68;42.81
9723;DHT22;4900;49.306;8.500;2022-08-19T09:08:26;31.96;42.04
9723;DHT22;4900;49.306;8.500;2022-08-19T09:11:38;32.72;41.14
9723;DHT22;4900;49.306;8.500;2022-08-19T09:14:55;33.43;40.53
9723;DHT22;4900;49.306;8.500;2022-08-19T09:18:04;33.91;39.11
9723;DHT22;4900;49.306;8.500;2022-08-19T09:21:08;34.32;38.30
9723;DHT22;4900;49.306;8.500;2022-08-19T09:24:11;34.92;37.94
9723;DHT22;4900;49.306;8.500;2022-08-19T09:27:15;35.39;37.12
9723;DHT22;4900;49.306;8.500;2022-08-19T09:30:24;35.25;36.89
9723;DHT22;4900;49.306;8.500;2022-08-19T09:33:28;35.70;36.56
9723;DHT22;4900;49.306;8.500;2022-08-19T09:36:32;36.29;35.81
9723;DHT22;4900;49.306;8.500;2022-08-19T09:39:41;36.46;35.25
9723;DHT22;4900;49.306;8.500;2022-08-19T09:42:45;36.80;34.85
9723;DHT22;4900;49.306;8.500;2022-08-19T09:45:52;36.49;34.63
9723;DHT22;4900;49.306;8.500;2022-08-19T09:48:58;36.94;34.23
9723;DHT22;4900;49.306;8.500;2022-08-19T09:52:01;37.01;33.91
9723;DHT22;4900;49.306;8.500;2022-08-19T09:55:07;37.10;33.48
9723;DHT22;4900;49.306;8.500;2022-08-19T09:58:10;37.07;33.21
9723;DHT22;4900;49.306;8.500;2022-08-19T10:01:23;37.43;32.85
9723;DHT22;4900;49.306;8.500;2022-08-19T10:04:27;37.87;32.61
9723;DHT22;4900;49.306;8.500;2022-08-19T10:07:50;38.10;32.17
9723;DHT22;4900;49.306;8.500;2022-08-19T10:10:54;38.25;32.08
9723;DHT22;4900;49.306;8.500;2022-08-19T10:13:58;38.07;32.02
9723;DHT22;4900;49.306;8.500;2022-08-19T10:17:02;38.52;31.64
9723;DHT22;4900;49.306;8.500;2022-08-19T10:20:06;38.69;31.20
9723;DHT22;4900;49.306;8.500;2022-08-19T10:23:09;38.58;31.44
9723;DHT22;4900;49.306;8.500;2022-08-19T10:26:25;39.06;31.19
9723;DHT22;4900;49.306;8.500;2022-08-19T10:29:29;38.80;31.26
9723;DHT22;4900;49.306;8.500;2022-08-19T10:32:32;38.96;31.57
9723;DHT22;4900;49.306;8.500;2022-08-19T10:35:36;38.86;31.46
9723;DHT22;4900;49.306;8.500;2022-08-19T10:38:41;39.38;30.67
9723;DHT22;4900;49.306;8.500;2022-08-19T10:41:44;39.68;30.27
9723;DHT22;4900;49.306;8.500;2022-08-19T10:44:47;39.61;30.10
9723;DHT22;4900;49.306;8.500;2022-08-19T10:47:52;39.85;29.75
9723;DHT22;4900;49.306;8.500;2022-08-19T10:50:57;40.45;29.41
9723;DHT22;4900;49.306;8.500;2022-08-19T10:54:20;41.07;28.77
9723;DHT22;4900;49.306;8.500;2022-08-19T10:57:23;41.14;28.34
9723;DHT22;4900;49.306;8.500;2022-08-19T11:00:31;40.40;28.75
9723;DHT22;4900;49.306;8.500;2022-08-19T11:03:35;39.57;29.33
9723;DHT22;4900;49.306;8.500;2022-08-19T11:06:39;38.31;30.42
9723;DHT22;4900;49.306;8.500;2022-08-19T11:09:43;37.77;31.41
9723;DHT22;4900;49.306;8.500;2022-08-19T11:12:47;37.31;32.00
9723;DHT22;4900;49.306;8.500;2022-08-19T11:16:06;37.73;31.10
9723;DHT22;4900;49.306;8.500;2022-08-19T11:19:11;38.18;29.96
9723;DHT22;4900;49.306;8.500;2022-08-19T11:22:15;38.55;30.03
9723;DHT22;4900;49.306;8.500;2022-08-19T11:25:20;38.32;30.04
9723;DHT22;4900;49.306;8.500;2022-08-19T11:28:23;38.76;29.61
9723;DHT22;4900;49.306;8.500;2022-08-19T11:31:29;38.14;30.12
9723;DHT22;4900;49.306;8.500;2022-08-19T11:34:36;38.20;30.34
9723;DHT22;4900;49.306;8.500;2022-08-19T11:37:39;38.17;30.31
9723;DHT22;4900;49.306;8.500;2022-08-19T11:40:43;38.87;30.35
9723;DHT22;4900;49.306;8.500;2022-08-19T11:43:47;38.99;29.57
9723;DHT22;4900;49.306;8.500;2022-08-19T11:46:50;39.27;28.63
9723;DHT22;4900;49.306;8.500;2022-08-19T11:49:55;39.57;29.11
9723;DHT22;4900;49.306;8.500;2022-08-19T11:52:58;39.97;28.67
9723;DHT22;4900;49.306;8.500;2022-08-19T11:56:04;39.40;28.58
9723;DHT22;4900;49.306;8.500;2022-08-19T11:59:07;38.97;27.49
9723;DHT22;4900;49.306;8.500;2022-08-19T12:02:10;38.52;27.40
9723;DHT22;4900;49.306;8.500;2022-08-19T12:05:14;39.10;27.24
9723;DHT22;4900;49.306;8.500;2022-08-19T12:08:18;38.72;26.89
9723;DHT22;4900;49.306;8.500;2022-08-19T12:11:21;39.17;26.71
9723;DHT22;4900;49.306;8.500;2022-08-19T12:14:25;39.33;26.13
9723;DHT22;4900;49.306;8.500;2022-08-19T12:17:29;39.59;25.88
9723;DHT22;4900;49.306;8.500;2022-08-19T12:20:35;39.85;25.59
9723;DHT22;4900;49.306;8.500;2022-08-19T12:23:40;39.95;25.66
9723;DHT22;4900;49.306;8.500;2022-08-19T12:26:43;39.95;25.14
9723;DHT22;4900;49.306;8.500;2022-08-19T12:29:47;39.31;25.84
9723;DHT22;4900;49.306;8.500;2022-08-19T12:32:51;38.99;25.93
9723;DHT22;4900;49.306;8.500;2022-08-19T12:35:55;39.23;25.97
9723;DHT22;4900;49.306;8.500;2022-08-19T12:39:02;39.50;25.55
9723;DHT22;4900;49.306;8.500;2022-08-19T12:42:11;38.65;25.90
9723;DHT22;4900;49.306;8.500;2022-08-19T12:45:15;37.82;26.58
9723;DHT22;4900;49.306;8.500;2022-08-19T12:48:18;37.28;27.28
9723;DHT22;4900;49.306;8.500;2022-08-19T12:51:22;37.32;27.25
9723;DHT22;4900;49.306;8.500;2022-08-19T12:54:26;37.24;27.21
9723;DHT22;4900;49.306;8.500;2022-08-19T12:57:30;37.87;26.80
9723;DHT22;4900;49.306;8.500;2022-08-19T13:00:35;38.42;26.33
9723;DHT22;4900;49.306;8.500;2022-08-19T13:03:39;39.02;25.69
9723;DHT22;4900;49.306;8.500;2022-08-19T13:06:43;39.47;25.28
9723;DHT22;4900;49.306;8.500;2022-08-19T13:09:46;40.03;24.80
9723;DHT22;4900;49.306;8.500;2022-08-19T13:12:50;39.85;24.92
9723;DHT22;4900;49.306;8.500;2022-08-19T13:16:00;39.99;24.63
9723;DHT22;4900;49.306;8.500;2022-08-19T13:19:05;39.59;24.43
9723;DHT22;4900;49.306;8.500;2022-08-19T13:22:10;39.88;24.68
9723;DHT22;4900;49.306;8.500;2022-08-19T13:25:14;39.93;23.87
9723;DHT22;4900;49.306;8.500;2022-08-19T13:28:20;40.41;24.29
9723;DHT22;4900;49.306;8.500;2022-08-19T13:31:26;39.61;24.11
9723;DHT22;4900;49.306;8.500;2022-08-19T13:34:48;39.23;24.73
9723;DHT22;4900;49.306;8.500;2022-08-19T13:37:51;39.50;25.05
9723;DHT22;4900;49.306;8.500;2022-08-19T13:40:55;39.52;24.42
9723;DHT22;4900;49.306;8.500;2022-08-19T13:43:58;39.52;24.39
9723;DHT22;4900;49.306;8.500;2022-08-19T13:47:05;39.28;25.42
9723;DHT22;4900;49.306;8.500;2022-08-19T13:50:11;38.62;26.32
9723;DHT22;4900;49.306;8.500;2022-08-19T13:53:15;38.92;25.72
9723;DHT22;4900;49.306;8.500;2022-08-19T13:56:19;39.17;26.01
9723;DHT22;4900;49.306;8.500;2022-08-19T13:59:22;38.86;26.22
9723;DHT22;4900;49.306;8.500;2022-08-19T14:02:26;38.82;25.90
9723;DHT22;4900;49.306;8.500;2022-08-19T14:05:30;38.62;25.72
9723;DHT22;4900;49.306;8.500;2022-08-19T14:08:34;38.92;25.63
9723;DHT22;4900;49.306;8.500;2022-08-19T14:11:37;39.14;25.30
9723;DHT22;4900;49.306;8.500;2022-08-19T14:14:40;39.03;24.99
9723;DHT22;4900;49.306;8.500;2022-08-19T14:17:45;38.83;25.31
9723;DHT22;4900;49.306;8.500;2022-08-19T14:20:49;39.25;25.27
9723;DHT22;4900;49.306;8.500;2022-08-19T14:23:53;39.64;24.61
9723;DHT22;4900;49.306;8.500;2022-08-19T14:27:00;39.54;24.54
9723;DHT22;4900;49.306;8.500;2022-08-19T14:30:05;39.44;24.80
9723;DHT22;4900;49.306;8.500;2022-08-19T14:33:09;39.28;24.50
9723;DHT22;4900;49.306;8.500;2022-08-19T14:36:13;39.54;25.23
9723;DHT22;4900;49.306;8.500;2022-08-19T14:39:16;39.48;24.56
9723;DHT22;4900;49.306;8.500;2022-08-19T14:42:19;39.11;25.43
9723;DHT22;4900;49.306;8.500;2022-08-19T14:45:23;38.97;24.96
9723;DHT22;4900;49.306;8.500;2022-08-19T14:48:26;38.42;25.72
9723;DHT22;4900;49.306;8.500;2022-08-19T14:51:30;37.91;26.30
9723;DHT22;4900;49.306;8.500;2022-08-19T14:54:33;37.59;26.91
9723;DHT22;4900;49.306;8.500;2022-08-19T14:57:36;37.38;27.01
9723;DHT22;4900;49.306;8.500;2022-08-19T15:00:40;37.38;27.57
9723;DHT22;4900;49.306;8.500;2022-08-19T15:03:43;37.10;27.80
9723;DHT22;4900;49.306;8.500;2022-08-19T15:06:47;37.15;27.40
9723;DHT22;4900;49.306;8.500;2022-08-19T15:09:50;37.43;27.17
9723;DHT22;4900;49.306;8.500;2022-08-19T15:12:53;37.24;27.35
9723;DHT22;4900;49.306;8.500;2022-08-19T15:15:57;36.91;27.30
9723;DHT22;4900;49.306;8.500;2022-08-19T15:19:01;36.62;27.76
9723;DHT22;4900;49.306;8.500;2022-08-19T15:22:03;36.50;27.89
9723;DHT22;4900;49.306;8.500;2022-08-19T15:25:09;36.40;28.59
9723;DHT22;4900;49.306;8.500;2022-08-19T15:28:13;36.29;28.45
9723;DHT22;4900;49.306;8.500;2022-08-19T15:31:21;36.49;28.01
9723;DHT22;4900;49.306;8.500;2022-08-19T15:34:25;36.50;28.37
9723;DHT22;4900;49.306;8.500;2022-08-19T15:37:28;36.36;28.43
9723;DHT22;4900;49.306;8.500;2022-08-19T15:40:32;36.63;28.54
9723;DHT22;4900;49.306;8.500;2022-08-19T15:43:40;36.72;28.12
9723;DHT22;4900;49.306;8.500;2022-08-19T15:46:46;36.35;28.02
9723;DHT22;4900;49.306;8.500;2022-08-19T15:49:50;35.84;28.17
9723;DHT22;4900;49.306;8.500;2022-08-19T15:52:58;35.95;28.38
9723;DHT22;4900;49.306;8.500;2022-08-19T15:56:02;35.87;29.04
9723;DHT22;4900;49.306;8.500;2022-08-19T15:59:06;36.01;28.91
9723;DHT22;4900;49.306;8.500;2022-08-19T16:02:38;36.04;29.05
9723;DHT22;4900;49.306;8.500;2022-08-19T16:06:00;35.93;28.57
9723;DHT22;4900;49.306;8.500;2022-08-19T16:09:25;35.67;28.78
9723;DHT22;4900;49.306;8.500;2022-08-19T16:12:31;35.70;28.68
9723;DHT22;4900;49.306;8.500;2022-08-19T16:15:34;35.67;28.90
9723;DHT22;4900;49.306;8.500;2022-08-19T16:18:37;35.76;29.22
9723;DHT22;4900;49.306;8.500;2022-08-19T16:21:43;35.76;29.05
9723;DHT22;4900;49.306;8.500;2022-08-19T16:24:47;35.69;28.90
9723;DHT22;4900;49.306;8.500;2022-08-19T16:27:50;35.38;29.15
9723;DHT22;4900;49.306;8.500;2022-08-19T16:30:54;35.33;29.02
9723;DHT22;4900;49.306;8.500;2022-08-19T16:33:57;34.99;29.37
9723;DHT22;4900;49.306;8.500;2022-08-19T16:37:01;34.81;29.90
9723;DHT22;4900;49.306;8.500;2022-08-19T16:40:04;34.61;29.84
9723;DHT22;4900;49.306;8.500;2022-08-19T16:43:10;34.66;29.78
9723;DHT22;4900;49.306;8.500;2022-08-19T16:46:14;34.32;30.07
9723;DHT22;4900;49.306;8.500;2022-08-19T16:49:17;34.12;30.44
9723;DHT22;4900;49.306;8.500;2022-08-19T16:52:20;33.71;30.83
9723;DHT22;4900;49.306;8.500;2022-08-19T16:55:28;33.60;31.36
9723;DHT22;4900;49.306;8.500;2022-08-19T16:58:32;33.36;31.61
9723;DHT22;4900;49.306;8.500;2022-08-19T17:01:36;32.91;31.98
9723;DHT22;4900;49.306;8.500;2022-08-19T17:04:39;32.63;32.48
9723;DHT22;4900;49.306;8.500;2022-08-19T17:07:43;32.44;32.89
9723;DHT22;4900;49.306;8.500;2022-08-19T17:10:46;32.29;33.48
9723;DHT22;4900;49.306;8.500;2022-08-19T17:13:50;32.10;33.78
9723;DHT22;4900;49.306;8.500;2022-08-19T17:16:54;31.93;34.14
9723;DHT22;4900;49.306;8.500;2022-08-19T17:19:58;31.78;34.66
9723;DHT22;4900;49.306;8.500;2022-08-19T17:23:04;31.67;35.07
9723;DHT22;4900;49.306;8.500;2022-08-19T17:26:14;31.60;35.22
9723;DHT22;4900;49.306;8.500;2022-08-19T17:29:18;31.58;35.63
9723;DHT22;4900;49.306;8.500;2022-08-19T17:32:21;31.54;35.88
9723;DHT22;4900;49.306;8.500;2022-08-19T17:35:24;31.55;35.69
9723;DHT22;4900;49.306;8.500;2022-08-19T17:38:29;31.51;35.66
9723;DHT22;4900;49.306;8.500;2022-08-19T17:41:33;31.45;35.69
9723;DHT22;4900;49.306;8.500;2022-08-19T17:44:36;31.31;35.81
9723;DHT22;4900;49.306;8.500;2022-08-19T17:48:08;31.16;36.02
9723;DHT22;4900;49.306;8.500;2022-08-19T17:51:44;30.93;36.35
9723;DHT22;4900;49.306;8.500;2022-08-19T17:54:48;30.89;36.38
9723;DHT22;4900;49.306;8.500;2022-08-19T17:57:51;30.78;36.59
9723;DHT22;4900;49.306;8.500;2022-08-19T18:00:55;30.68;36.73
9723;DHT22;4900;49.306;8.500;2022-08-19T18:03:59;30.54;36.93
9723;DHT22;4900;49.306;8.500;2022-08-19T18:07:03;30.44;37.17
9723;DHT22;4900;49.306;8.500;2022-08-19T18:10:08;30.30;37.47
9723;DHT22;4900;49.306;8.500;2022-08-19T18:13:11;30.13;37.88
9723;DHT22;4900;49.306;8.500;2022-08-19T18:16:15;30.09;37.93
9723;DHT22;4900;49.306;8.500;2022-08-19T18:19:21;30.05;38.07
9723;DHT22;4900;49.306;8.500;2022-08-19T18:22:29;30.02;38.14
9723;DHT22;4900;49.306;8.500;2022-08-19T18:25:32;29.96;38.49
9723;DHT22;4900;49.306;8.500;2022-08-19T18:28:36;29.85;38.83
9723;DHT22;4900;49.306;8.500;2022-08-19T18:31:41;29.79;39.00
9723;DHT22;4900;49.306;8.500;2022-08-19T18:34:46;29.73;39.39
9723;DHT22;4900;49.306;8.500;2022-08-19T18:37:50;29.64;40.17
9723;DHT22;4900;49.306;8.500;2022-08-19T18:40:53;29.55;40.56
9723;DHT22;4900;49.306;8.500;2022-08-19T18:44:15;29.47;41.14
9723;DHT22;4900;49.306;8.500;2022-08-19T18:47:37;29.43;41.44
9723;DHT22;4900;49.306;8.500;2022-08-19T18:51:00;29.34;41.84
9723;DHT22;4900;49.306;8.500;2022-08-19T18:54:04;29.27;41.95
9723;DHT22;4900;49.306;8.500;2022-08-19T18:57:07;29.25;42.27
9723;DHT22;4900;49.306;8.500;2022-08-19T19:00:10;29.20;42.27
9723;DHT22;4900;49.306;8.500;2022-08-19T19:03:14;29.14;42.56
9723;DHT22;4900;49.306;8.500;2022-08-19T19:06:24;29.06;43.14
9723;DHT22;4900;49.306;8.500;2022-08-19T19:09:29;29.03;43.96
9723;DHT22;4900;49.306;8.500;2022-08-19T19:12:41;28.96;44.14
9723;DHT22;4900;49.306;8.500;2022-08-19T19:15:44;28.89;43.91
9723;DHT22;4900;49.306;8.500;2022-08-19T19:18:48;28.83;44.41
9723;DHT22;4900;49.306;8.500;2022-08-19T19:21:54;28.75;44.48
9723;DHT22;4900;49.306;8.500;2022-08-19T19:24:58;28.72;44.48
9723;DHT22;4900;49.306;8.500;2022-08-19T19:28:02;28.64;44.67
9723;DHT22;4900;49.306;8.500;2022-08-19T19:31:05;28.55;44.64
9723;DHT22;4900;49.306;8.500;2022-08-19T19:34:13;28.48;44.82
9723;DHT22;4900;49.306;8.500;2022-08-19T19:37:17;28.41;44.80
9723;DHT22;4900;49.306;8.500;2022-08-19T19:40:20;28.34;44.92
9723;DHT22;4900;49.306;8.500;2022-08-19T19:43:24;28.29;45.02
9723;DHT22;4900;49.306;8.500;2022-08-19T19:46:28;28.19;45.05
9723;DHT22;4900;49.306;8.500;2022-08-19T19:49:31;28.02;44.99
9723;DHT22;4900;49.306;8.500;2022-08-19T19:52:34;27.90;44.90
9723;DHT22;4900;49.306;8.500;2022-08-19T19:55:38;27.79;44.65
9723;DHT22;4900;49.306;8.500;2022-08-19T19:58:43;27.68;44.22
9723;DHT22;4900;49.306;8.500;2022-08-19T20:01:46;27.66;44.08
9723;DHT22;4900;49.306;8.500;2022-08-19T20:04:49;27.59;43.69
9723;DHT22;4900;49.306;8.500;2022-08-19T20:07:53;27.40;43.38
9723;DHT22;4900;49.306;8.500;2022-08-19T20:11:35;27.33;43.32
9723;DHT22;4900;49.306;8.500;2022-08-19T20:14:39;27.20;43.01